Terminal Aerodrome Forecast
Issued by NWS Cleveland, OH

Home | Current Version | Previous Version | Text Only | Print | Product List | Glossary On
Versions: 1 2 3 4 5 6 7 8 9 10 11 12 13 14 15 16 17 18 19 20 21 22 23 24 25 26 27
000
FTUS41 KCLE 281700
TAFMFD
TAF
KMFD 281720Z 2818/2918 16006KT P6SM BKN250
     FM290400 15005KT P6SM OVC120
     FM291100 15014G22KT P6SM OVC060
     FM291300 16015G25KT 6SM BR SCT012 OVC050
      TEMPO 2913/2915 5SM -FZRA BR OVC012
     FM291500 18015G25KT 4SM -FZRA BR OVC012
      TEMPO 2915/2918 2SM -FZRASNPL BR OVC008=

USA.gov is the U.S. government's official web portal to all federal, state and local government web resources and services.